sensor_id;sensor_type;location;lat;lon;timestamp;pressure;altitude;pressure_sealevel;temperature;humidity
66430;BME280;53242;51.694;10.006;2024-03-06T00:01:48;99713.09;;;6.25;85.33
66430;BME280;53242;51.694;10.006;2024-03-06T00:04:10;99727.19;;;6.41;84.89
66430;BME280;53242;51.694;10.006;2024-03-06T00:06:33;99724.91;;;6.38;84.50
66430;BME280;53242;51.694;10.006;2024-03-06T00:08:55;99729.66;;;6.34;85.38
66430;BME280;53242;51.694;10.006;2024-03-06T00:11:18;99730.97;;;6.38;83.92
66430;BME280;53242;51.694;10.006;2024-03-06T00:13:40;99728.84;;;6.42;84.49
66430;BME280;53242;51.694;10.006;2024-03-06T00:16:03;99741.31;;;6.48;83.97
66430;BME280;53242;51.694;10.006;2024-03-06T00:18:26;99738.19;;;6.45;83.59
66430;BME280;53242;51.694;10.006;2024-03-06T00:20:48;99743.44;;;6.36;83.69
66430;BME280;53242;51.694;10.006;2024-03-06T00:23:11;99748.16;;;6.41;84.23
66430;BME280;53242;51.694;10.006;2024-03-06T00:25:33;99749.00;;;6.41;83.81
66430;BME280;53242;51.694;10.006;2024-03-06T00:27:56;99743.09;;;6.39;83.66
66430;BME280;53242;51.694;10.006;2024-03-06T00:30:19;99758.66;;;6.41;83.86
66430;BME280;53242;51.694;10.006;2024-03-06T00:32:41;99757.22;;;6.55;82.85
66430;BME280;53242;51.694;10.006;2024-03-06T00:35:04;99761.78;;;6.53;83.20
66430;BME280;53242;51.694;10.006;2024-03-06T00:37:26;99754.59;;;6.47;83.74
66430;BME280;53242;51.694;10.006;2024-03-06T00:39:49;99758.81;;;6.48;83.67
66430;BME280;53242;51.694;10.006;2024-03-06T00:42:11;99762.28;;;6.56;82.93
66430;BME280;53242;51.694;10.006;2024-03-06T00:44:35;99767.53;;;6.56;82.53
66430;BME280;53242;51.694;10.006;2024-03-06T00:46:58;99767.69;;;6.63;82.56
66430;BME280;53242;51.694;10.006;2024-03-06T00:49:20;99771.75;;;6.41;82.32
66430;BME280;53242;51.694;10.006;2024-03-06T00:51:43;99770.50;;;6.53;81.96
66430;BME280;53242;51.694;10.006;2024-03-06T00:54:05;99765.88;;;6.39;81.73
66430;BME280;53242;51.694;10.006;2024-03-06T00:56:27;99770.16;;;6.48;81.96
66430;BME280;53242;51.694;10.006;2024-03-06T00:58:50;99770.00;;;6.58;82.15
66430;BME280;53242;51.694;10.006;2024-03-06T01:01:12;99769.81;;;6.43;82.90
66430;BME280;53242;51.694;10.006;2024-03-06T01:03:35;99778.53;;;6.52;82.29
66430;BME280;53242;51.694;10.006;2024-03-06T01:05:57;99780.31;;;6.43;82.77
66430;BME280;53242;51.694;10.006;2024-03-06T01:08:20;99776.72;;;6.52;82.61
66430;BME280;53242;51.694;10.006;2024-03-06T01:10:42;99776.38;;;6.55;82.58
66430;BME280;53242;51.694;10.006;2024-03-06T01:13:04;99778.53;;;6.52;82.27
66430;BME280;53242;51.694;10.006;2024-03-06T01:15:27;99778.03;;;6.48;82.07
66430;BME280;53242;51.694;10.006;2024-03-06T01:17:50;99783.44;;;6.55;82.04
66430;BME280;53242;51.694;10.006;2024-03-06T01:20:12;99772.44;;;6.51;82.21
66430;BME280;53242;51.694;10.006;2024-03-06T01:22:35;99780.34;;;6.60;82.03
66430;BME280;53242;51.694;10.006;2024-03-06T01:24:57;99781.63;;;6.47;82.30
66430;BME280;53242;51.694;10.006;2024-03-06T01:27:19;99784.25;;;6.55;81.35
66430;BME280;53242;51.694;10.006;2024-03-06T01:29:42;99789.03;;;6.60;81.65
66430;BME280;53242;51.694;10.006;2024-03-06T01:32:05;99783.44;;;6.47;81.71
66430;BME280;53242;51.694;10.006;2024-03-06T01:34:27;99780.94;;;6.37;81.26
66430;BME280;53242;51.694;10.006;2024-03-06T01:36:49;99777.00;;;6.41;81.29
66430;BME280;53242;51.694;10.006;2024-03-06T01:39:12;99785.56;;;6.51;81.32
66430;BME280;53242;51.694;10.006;2024-03-06T01:41:34;99783.91;;;6.50;80.98
66430;BME280;53242;51.694;10.006;2024-03-06T01:43:57;99786.88;;;6.55;81.14
66430;BME280;53242;51.694;10.006;2024-03-06T01:46:19;99786.53;;;6.42;81.24
66430;BME280;53242;51.694;10.006;2024-03-06T01:48:41;99793.06;;;6.46;80.64
66430;BME280;53242;51.694;10.006;2024-03-06T01:51:05;99792.56;;;6.42;80.97
66430;BME280;53242;51.694;10.006;2024-03-06T01:53:29;99802.88;;;6.36;81.01
66430;BME280;53242;51.694;10.006;2024-03-06T01:55:52;99807.13;;;6.29;80.57
66430;BME280;53242;51.694;10.006;2024-03-06T01:58:15;99808.66;;;6.48;80.54
66430;BME280;53242;51.694;10.006;2024-03-06T02:00:37;99808.75;;;6.30;81.34
66430;BME280;53242;51.694;10.006;2024-03-06T02:03:00;99799.63;;;6.42;81.09
66430;BME280;53242;51.694;10.006;2024-03-06T02:05:22;99798.66;;;6.51;80.57
66430;BME280;53242;51.694;10.006;2024-03-06T02:07:45;99804.88;;;6.50;80.29
66430;BME280;53242;51.694;10.006;2024-03-06T02:10:09;99798.19;;;6.56;80.50
66430;BME280;53242;51.694;10.006;2024-03-06T02:12:32;99804.59;;;6.62;80.36
66430;BME280;53242;51.694;10.006;2024-03-06T02:14:55;99802.94;;;6.52;80.26
66430;BME280;53242;51.694;10.006;2024-03-06T02:17:17;99804.06;;;6.41;81.16
66430;BME280;53242;51.694;10.006;2024-03-06T02:19:43;99801.28;;;6.43;80.55
66430;BME280;53242;51.694;10.006;2024-03-06T02:22:07;99802.25;;;6.42;80.91
66430;BME280;53242;51.694;10.006;2024-03-06T02:24:29;99805.38;;;6.46;80.87
66430;BME280;53242;51.694;10.006;2024-03-06T02:26:52;99809.94;;;6.44;80.79
66430;BME280;53242;51.694;10.006;2024-03-06T02:29:14;99808.63;;;6.39;80.80
66430;BME280;53242;51.694;10.006;2024-03-06T02:31:37;99812.41;;;6.45;81.30
66430;BME280;53242;51.694;10.006;2024-03-06T02:34:01;99812.16;;;6.22;81.61
66430;BME280;53242;51.694;10.006;2024-03-06T02:36:27;99811.41;;;6.38;81.61
66430;BME280;53242;51.694;10.006;2024-03-06T02:38:49;99811.06;;;6.33;81.38
66430;BME280;53242;51.694;10.006;2024-03-06T02:41:11;99822.78;;;6.12;82.17
66430;BME280;53242;51.694;10.006;2024-03-06T02:43:36;99816.94;;;6.27;82.07
66430;BME280;53242;51.694;10.006;2024-03-06T02:45:59;99822.16;;;6.18;81.76
66430;BME280;53242;51.694;10.006;2024-03-06T02:48:21;99819.84;;;6.15;81.91
66430;BME280;53242;51.694;10.006;2024-03-06T02:50:43;99820.09;;;6.30;81.82
66430;BME280;53242;51.694;10.006;2024-03-06T02:53:06;99820.59;;;6.34;81.53
66430;BME280;53242;51.694;10.006;2024-03-06T02:55:28;99826.91;;;6.23;81.68
66430;BME280;53242;51.694;10.006;2024-03-06T02:57:51;99830.72;;;6.29;82.50
66430;BME280;53242;51.694;10.006;2024-03-06T03:00:13;99826.06;;;6.14;82.92
66430;BME280;53242;51.694;10.006;2024-03-06T03:02:38;99824.94;;;6.17;82.15
66430;BME280;53242;51.694;10.006;2024-03-06T03:05:00;99827.72;;;6.15;82.98
66430;BME280;53242;51.694;10.006;2024-03-06T03:07:23;99832.94;;;6.15;83.05
66430;BME280;53242;51.694;10.006;2024-03-06T03:09:45;99833.38;;;6.02;83.39
66430;BME280;53242;51.694;10.006;2024-03-06T03:12:08;99826.75;;;6.16;82.94
66430;BME280;53242;51.694;10.006;2024-03-06T03:14:30;99832.94;;;6.15;83.15
66430;BME280;53242;51.694;10.006;2024-03-06T03:16:54;99832.31;;;6.13;83.62
66430;BME280;53242;51.694;10.006;2024-03-06T03:19:17;99837.25;;;6.24;82.94
66430;BME280;53242;51.694;10.006;2024-03-06T03:21:44;99841.13;;;5.86;84.00
66430;BME280;53242;51.694;10.006;2024-03-06T03:24:06;99844.38;;;6.06;83.76
66430;BME280;53242;51.694;10.006;2024-03-06T03:26:29;99842.28;;;6.09;83.80
66430;BME280;53242;51.694;10.006;2024-03-06T03:28:51;99845.44;;;6.30;83.12
66430;BME280;53242;51.694;10.006;2024-03-06T03:31:13;99844.97;;;6.26;83.20
66430;BME280;53242;51.694;10.006;2024-03-06T03:33:39;99853.47;;;6.28;83.37
66430;BME280;53242;51.694;10.006;2024-03-06T03:36:02;99849.50;;;6.16;83.09
66430;BME280;53242;51.694;10.006;2024-03-06T03:38:24;99845.34;;;6.05;84.23
66430;BME280;53242;51.694;10.006;2024-03-06T03:40:47;99851.97;;;6.17;83.68
66430;BME280;53242;51.694;10.006;2024-03-06T03:43:09;99858.25;;;5.98;84.32
66430;BME280;53242;51.694;10.006;2024-03-06T03:45:32;99862.63;;;6.16;83.81
66430;BME280;53242;51.694;10.006;2024-03-06T03:47:55;99855.63;;;5.98;84.59
66430;BME280;53242;51.694;10.006;2024-03-06T03:50:18;99859.66;;;6.11;84.01
66430;BME280;53242;51.694;10.006;2024-03-06T03:52:40;99864.81;;;6.29;83.40
66430;BME280;53242;51.694;10.006;2024-03-06T03:55:04;99869.69;;;6.23;83.99
66430;BME280;53242;51.694;10.006;2024-03-06T03:57:27;99871.44;;;6.15;83.78
66430;BME280;53242;51.694;10.006;2024-03-06T03:59:49;99871.63;;;6.13;83.89
66430;BME280;53242;51.694;10.006;2024-03-06T04:02:13;99869.03;;;6.21;83.70
66430;BME280;53242;51.694;10.006;2024-03-06T04:04:35;99869.19;;;6.20;83.34
66430;BME280;53242;51.694;10.006;2024-03-06T04:06:58;99869.78;;;6.05;83.59
66430;BME280;53242;51.694;10.006;2024-03-06T04:09:21;99865.94;;;6.26;83.76
66430;BME280;53242;51.694;10.006;2024-03-06T04:11:44;99878.00;;;6.11;83.72
66430;BME280;53242;51.694;10.006;2024-03-06T04:14:07;99881.75;;;6.08;84.19
66430;BME280;53242;51.694;10.006;2024-03-06T04:16:29;99875.47;;;6.01;84.51
66430;BME280;53242;51.694;10.006;2024-03-06T04:18:52;99881.13;;;5.96;85.16
66430;BME280;53242;51.694;10.006;2024-03-06T04:21:14;99872.63;;;6.20;83.85
66430;BME280;53242;51.694;10.006;2024-03-06T04:23:37;99885.97;;;6.09;83.90
66430;BME280;53242;51.694;10.006;2024-03-06T04:26:00;99882.59;;;6.17;83.77
66430;BME280;53242;51.694;10.006;2024-03-06T04:28:22;99893.91;;;6.17;83.33
66430;BME280;53242;51.694;10.006;2024-03-06T04:30:45;99889.91;;;6.05;83.98
66430;BME280;53242;51.694;10.006;2024-03-06T04:33:07;99895.84;;;6.15;83.88
66430;BME280;53242;51.694;10.006;2024-03-06T04:35:29;99890.72;;;6.05;83.62
66430;BME280;53242;51.694;10.006;2024-03-06T04:37:52;99898.19;;;6.18;83.23
66430;BME280;53242;51.694;10.006;2024-03-06T04:40:14;99902.22;;;6.13;83.44
66430;BME280;53242;51.694;10.006;2024-03-06T04:42:40;99901.69;;;6.09;83.43
66430;BME280;53242;51.694;10.006;2024-03-06T04:45:03;99904.19;;;6.11;83.58
66430;BME280;53242;51.694;10.006;2024-03-06T04:47:25;99900.00;;;6.00;83.64
66430;BME280;53242;51.694;10.006;2024-03-06T04:49:48;99909.56;;;6.09;83.18
66430;BME280;53242;51.694;10.006;2024-03-06T04:52:12;99903.84;;;6.05;83.11
66430;BME280;53242;51.694;10.006;2024-03-06T04:54:34;99911.03;;;6.03;83.18
66430;BME280;53242;51.694;10.006;2024-03-06T04:56:57;99911.28;;;6.18;82.70
66430;BME280;53242;51.694;10.006;2024-03-06T04:59:19;99914.44;;;6.04;83.48
66430;BME280;53242;51.694;10.006;2024-03-06T05:01:42;99915.13;;;6.06;82.90
66430;BME280;53242;51.694;10.006;2024-03-06T05:04:06;99923.72;;;6.16;82.50
66430;BME280;53242;51.694;10.006;2024-03-06T05:06:29;99921.66;;;6.02;82.34
66430;BME280;53242;51.694;10.006;2024-03-06T05:08:51;99921.56;;;5.93;82.68
66430;BME280;53242;51.694;10.006;2024-03-06T05:11:14;99919.78;;;5.94;83.08
66430;BME280;53242;51.694;10.006;2024-03-06T05:13:36;99932.19;;;6.10;82.44
66430;BME280;53242;51.694;10.006;2024-03-06T05:15:58;99927.91;;;6.09;81.92
66430;BME280;53242;51.694;10.006;2024-03-06T05:18:21;99924.56;;;5.99;82.05
66430;BME280;53242;51.694;10.006;2024-03-06T05:20:43;99923.44;;;6.01;81.81
66430;BME280;53242;51.694;10.006;2024-03-06T05:23:06;99939.91;;;5.93;81.70
66430;BME280;53242;51.694;10.006;2024-03-06T05:25:28;99932.03;;;5.93;81.64
66430;BME280;53242;51.694;10.006;2024-03-06T05:27:51;99931.81;;;5.87;82.22
66430;BME280;53242;51.694;10.006;2024-03-06T05:30:13;99932.88;;;5.94;81.89
66430;BME280;53242;51.694;10.006;2024-03-06T05:32:36;99939.91;;;5.93;81.79
66430;BME280;53242;51.694;10.006;2024-03-06T05:34:59;99941.53;;;5.95;82.08
66430;BME280;53242;51.694;10.006;2024-03-06T05:37:21;99937.75;;;6.07;81.35
66430;BME280;53242;51.694;10.006;2024-03-06T05:39:44;99941.34;;;6.06;81.38
66430;BME280;53242;51.694;10.006;2024-03-06T05:42:06;99944.00;;;5.96;81.60
66430;BME280;53242;51.694;10.006;2024-03-06T05:44:29;99945.13;;;5.93;81.09
66430;BME280;53242;51.694;10.006;2024-03-06T05:46:52;99948.88;;;5.91;81.49
66430;BME280;53242;51.694;10.006;2024-03-06T05:49:15;99946.22;;;6.01;81.18
66430;BME280;53242;51.694;10.006;2024-03-06T05:51:37;99957.41;;;5.93;81.27
66430;BME280;53242;51.694;10.006;2024-03-06T05:54:00;99959.84;;;5.86;81.30
66430;BME280;53242;51.694;10.006;2024-03-06T05:56:22;99962.75;;;5.83;81.25
66430;BME280;53242;51.694;10.006;2024-03-06T05:58:45;99960.97;;;5.84;80.90
66430;BME280;53242;51.694;10.006;2024-03-06T06:01:09;99964.72;;;5.99;80.42
66430;BME280;53242;51.694;10.006;2024-03-06T06:03:31;99970.16;;;6.06;80.43
66430;BME280;53242;51.694;10.006;2024-03-06T06:05:54;99975.91;;;5.91;80.74
66430;BME280;53242;51.694;10.006;2024-03-06T06:08:16;99973.94;;;5.93;80.40
66430;BME280;53242;51.694;10.006;2024-03-06T06:10:39;99971.59;;;6.00;80.78
66430;BME280;53242;51.694;10.006;2024-03-06T06:13:01;99977.22;;;6.05;80.85
66430;BME280;53242;51.694;10.006;2024-03-06T06:15:26;99980.69;;;6.14;80.66
66430;BME280;53242;51.694;10.006;2024-03-06T06:17:49;99974.06;;;6.02;80.50
66430;BME280;53242;51.694;10.006;2024-03-06T06:20:12;99980.94;;;6.03;80.39
66430;BME280;53242;51.694;10.006;2024-03-06T06:22:37;99988.19;;;6.09;80.27
66430;BME280;53242;51.694;10.006;2024-03-06T06:25:00;99991.44;;;6.03;80.23
66430;BME280;53242;51.694;10.006;2024-03-06T06:27:22;100001.53;;;5.98;80.17
66430;BME280;53242;51.694;10.006;2024-03-06T06:29:45;99999.94;;;6.05;80.17
66430;BME280;53242;51.694;10.006;2024-03-06T06:32:07;99997.53;;;6.12;79.92
66430;BME280;53242;51.694;10.006;2024-03-06T06:34:30;100009.38;;;6.16;80.50
66430;BME280;53242;51.694;10.006;2024-03-06T06:36:54;100004.19;;;6.24;79.94
66430;BME280;53242;51.694;10.006;2024-03-06T06:39:16;100008.50;;;6.33;80.01
66430;BME280;53242;51.694;10.006;2024-03-06T06:41:39;100007.31;;;6.28;80.13
66430;BME280;53242;51.694;10.006;2024-03-06T06:44:01;100014.59;;;6.34;79.73
66430;BME280;53242;51.694;10.006;2024-03-06T06:46:24;100013.44;;;6.36;79.60
66430;BME280;53242;51.694;10.006;2024-03-06T06:48:47;100012.31;;;6.39;79.29
66430;BME280;53242;51.694;10.006;2024-03-06T06:51:11;100026.28;;;6.21;80.15
66430;BME280;53242;51.694;10.006;2024-03-06T06:53:33;100030.34;;;6.42;79.39
66430;BME280;53242;51.694;10.006;2024-03-06T06:55:56;100042.16;;;6.46;79.15
66430;BME280;53242;51.694;10.006;2024-03-06T06:58:18;100033.28;;;6.39;79.19
66430;BME280;53242;51.694;10.006;2024-03-06T07:00:42;100043.97;;;6.46;79.31
66430;BME280;53242;51.694;10.006;2024-03-06T07:03:04;100042.38;;;6.53;79.49
66430;BME280;53242;51.694;10.006;2024-03-06T07:05:27;100042.47;;;6.69;79.12
66430;BME280;53242;51.694;10.006;2024-03-06T07:07:50;100054.91;;;6.41;79.79
66430;BME280;53242;51.694;10.006;2024-03-06T07:10:12;100058.78;;;6.55;79.17
66430;BME280;53242;51.694;10.006;2024-03-06T07:12:35;100068.09;;;6.49;80.26
66430;BME280;53242;51.694;10.006;2024-03-06T07:14:58;100065.94;;;6.45;80.01
66430;BME280;53242;51.694;10.006;2024-03-06T07:17:21;100076.81;;;6.58;79.23
66430;BME280;53242;51.694;10.006;2024-03-06T07:19:44;100080.75;;;6.80;78.73
66430;BME280;53242;51.694;10.006;2024-03-06T07:22:06;100074.56;;;6.89;78.42
66430;BME280;53242;51.694;10.006;2024-03-06T07:24:28;100080.69;;;6.98;78.00
66430;BME280;53242;51.694;10.006;2024-03-06T07:26:51;100083.44;;;6.97;78.19
66430;BME280;53242;51.694;10.006;2024-03-06T07:29:13;100088.69;;;6.97;77.76
66430;BME280;53242;51.694;10.006;2024-03-06T07:31:36;100090.03;;;7.01;77.69
66430;BME280;53242;51.694;10.006;2024-03-06T07:34:00;100089.63;;;7.14;77.50
66430;BME280;53242;51.694;10.006;2024-03-06T07:36:22;100094.19;;;7.12;76.96
66430;BME280;53242;51.694;10.006;2024-03-06T07:38:46;100095.38;;;6.83;78.82
66430;BME280;53242;51.694;10.006;2024-03-06T07:41:08;100085.41;;;6.95;78.13
66430;BME280;53242;51.694;10.006;2024-03-06T07:43:32;100095.50;;;7.16;77.19
66430;BME280;53242;51.694;10.006;2024-03-06T07:45:54;100099.31;;;6.87;77.73
66430;BME280;53242;51.694;10.006;2024-03-06T07:48:17;100096.00;;;6.85;77.27
66430;BME280;53242;51.694;10.006;2024-03-06T07:50:40;100103.44;;;6.89;76.93
66430;BME280;53242;51.694;10.006;2024-03-06T07:53:02;100105.72;;;6.93;76.78
66430;BME280;53242;51.694;10.006;2024-03-06T07:55:24;100103.47;;;6.98;76.46
66430;BME280;53242;51.694;10.006;2024-03-06T07:57:47;100105.16;;;7.07;76.84
66430;BME280;53242;51.694;10.006;2024-03-06T08:00:10;100113.19;;;7.05;76.33
66430;BME280;53242;51.694;10.006;2024-03-06T08:02:41;100117.50;;;7.15;76.18
66430;BME280;53242;51.694;10.006;2024-03-06T08:05:10;100115.44;;;7.27;75.71
66430;BME280;53242;51.694;10.006;2024-03-06T08:07:34;100117.19;;;7.18;75.89
66430;BME280;53242;51.694;10.006;2024-03-06T08:09:57;100119.19;;;7.24;75.92
66430;BME280;53242;51.694;10.006;2024-03-06T08:12:19;100121.59;;;7.17;75.63
66430;BME280;53242;51.694;10.006;2024-03-06T08:14:42;100127.53;;;7.19;76.18
66430;BME280;53242;51.694;10.006;2024-03-06T08:17:04;100125.16;;;7.34;75.84
66430;BME280;53242;51.694;10.006;2024-03-06T08:19:26;100124.63;;;7.31;76.34
66430;BME280;53242;51.694;10.006;2024-03-06T08:21:49;100133.03;;;7.34;75.78
66430;BME280;53242;51.694;10.006;2024-03-06T08:24:12;100136.31;;;7.36;75.45
66430;BME280;53242;51.694;10.006;2024-03-06T08:26:34;100131.22;;;7.35;75.55
66430;BME280;53242;51.694;10.006;2024-03-06T08:28:56;100137.63;;;7.40;75.21
66430;BME280;53242;51.694;10.006;2024-03-06T08:31:19;100139.13;;;7.43;75.29
66430;BME280;53242;51.694;10.006;2024-03-06T08:33:43;100142.56;;;7.44;75.02
66430;BME280;53242;51.694;10.006;2024-03-06T08:36:06;100135.66;;;7.34;75.85
66430;BME280;53242;51.694;10.006;2024-03-06T08:38:29;100147.78;;;7.35;76.40
66430;BME280;53242;51.694;10.006;2024-03-06T08:40:51;100154.03;;;7.34;76.28
66430;BME280;53242;51.694;10.006;2024-03-06T08:43:14;100154.75;;;7.45;75.47
66430;BME280;53242;51.694;10.006;2024-03-06T08:45:37;100156.09;;;7.22;76.59
66430;BME280;53242;51.694;10.006;2024-03-06T08:47:59;100157.44;;;7.27;75.92
66430;BME280;53242;51.694;10.006;2024-03-06T08:50:22;100156.16;;;7.39;75.29
66430;BME280;53242;51.694;10.006;2024-03-06T08:52:45;100162.13;;;7.49;75.27
66430;BME280;53242;51.694;10.006;2024-03-06T08:55:08;100165.88;;;7.47;75.06
66430;BME280;53242;51.694;10.006;2024-03-06T08:57:31;100168.25;;;7.23;75.98
66430;BME280;53242;51.694;10.006;2024-03-06T08:59:54;100174.91;;;7.44;74.82
66430;BME280;53242;51.694;10.006;2024-03-06T09:02:18;100176.88;;;7.16;76.37
66430;BME280;53242;51.694;10.006;2024-03-06T09:04:42;100171.44;;;7.09;74.33
66430;BME280;53242;51.694;10.006;2024-03-06T09:07:04;100179.16;;;7.37;74.19
66430;BME280;53242;51.694;10.006;2024-03-06T09:09:28;100181.03;;;7.53;73.93
66430;BME280;53242;51.694;10.006;2024-03-06T09:11:50;100178.03;;;7.13;72.69
66430;BME280;53242;51.694;10.006;2024-03-06T09:14:14;100180.78;;;7.38;73.23
66430;BME280;53242;51.694;10.006;2024-03-06T09:16:36;100189.69;;;7.45;72.49
66430;BME280;53242;51.694;10.006;2024-03-06T09:18:59;100184.47;;;7.53;72.60
66430;BME280;53242;51.694;10.006;2024-03-06T09:21:21;100181.63;;;7.38;72.97
66430;BME280;53242;51.694;10.006;2024-03-06T09:23:44;100187.78;;;7.55;72.29
66430;BME280;53242;51.694;10.006;2024-03-06T09:26:06;100190.22;;;7.57;71.35
66430;BME280;53242;51.694;10.006;2024-03-06T09:28:29;100195.72;;;7.72;71.29
66430;BME280;53242;51.694;10.006;2024-03-06T09:30:51;100191.78;;;7.68;71.49
66430;BME280;53242;51.694;10.006;2024-03-06T09:33:14;100197.66;;;7.70;71.59
66430;BME280;53242;51.694;10.006;2024-03-06T09:35:36;100193.38;;;7.61;71.72
66430;BME280;53242;51.694;10.006;2024-03-06T09:37:58;100198.16;;;7.65;71.06
66430;BME280;53242;51.694;10.006;2024-03-06T09:40:24;100195.78;;;7.88;71.53
66430;BME280;53242;51.694;10.006;2024-03-06T09:42:47;100193.50;;;7.94;71.61
66430;BME280;53242;51.694;10.006;2024-03-06T09:45:11;100198.16;;;7.65;71.78
66430;BME280;53242;51.694;10.006;2024-03-06T09:47:34;100197.84;;;7.77;70.57
66430;BME280;53242;51.694;10.006;2024-03-06T09:49:57;100208.25;;;7.52;70.45
66430;BME280;53242;51.694;10.006;2024-03-06T09:52:22;100206.97;;;7.56;71.21
66430;BME280;53242;51.694;10.006;2024-03-06T09:54:47;100211.88;;;7.51;71.98
66430;BME280;53242;51.694;10.006;2024-03-06T09:57:10;100209.50;;;7.74;70.93
66430;BME280;53242;51.694;10.006;2024-03-06T09:59:35;100213.53;;;7.52;71.65
66430;BME280;53242;51.694;10.006;2024-03-06T10:01:58;100213.09;;;7.65;70.64
66430;BME280;53242;51.694;10.006;2024-03-06T10:06:44;100224.66;;;7.80;71.30
66430;BME280;53242;51.694;10.006;2024-03-06T10:09:10;100231.75;;;7.88;71.58
66430;BME280;53242;51.694;10.006;2024-03-06T10:11:38;100233.28;;;8.07;70.91
66430;BME280;53242;51.694;10.006;2024-03-06T10:14:01;100234.56;;;7.95;71.56
66430;BME280;53242;51.694;10.006;2024-03-06T10:16:23;100239.19;;;7.66;71.78
66430;BME280;53242;51.694;10.006;2024-03-06T10:18:45;100233.03;;;7.84;71.47
66430;BME280;53242;51.694;10.006;2024-03-06T10:21:08;100248.28;;;7.80;70.93
66430;BME280;53242;51.694;10.006;2024-03-06T10:23:31;100242.13;;;7.98;70.85
66430;BME280;53242;51.694;10.006;2024-03-06T10:25:53;100240.88;;;8.18;71.10
66430;BME280;53242;51.694;10.006;2024-03-06T10:28:18;100247.28;;;8.07;71.03
66430;BME280;53242;51.694;10.006;2024-03-06T10:30:41;100245.22;;;7.93;71.85
66430;BME280;53242;51.694;10.006;2024-03-06T10:33:08;100246.72;;;7.96;71.00
66430;BME280;53242;51.694;10.006;2024-03-06T10:35:31;100246.94;;;8.02;70.77
66430;BME280;53242;51.694;10.006;2024-03-06T10:37:54;100248.06;;;8.00;71.03
66430;BME280;53242;51.694;10.006;2024-03-06T10:40:17;100258.06;;;7.96;70.68
66430;BME280;53242;51.694;10.006;2024-03-06T10:42:39;100254.72;;;8.20;69.99
66430;BME280;53242;51.694;10.006;2024-03-06T10:45:04;100251.63;;;8.42;69.90
66430;BME280;53242;51.694;10.006;2024-03-06T10:47:28;100253.50;;;8.06;69.38
66430;BME280;53242;51.694;10.006;2024-03-06T10:49:51;100252.59;;;8.32;69.65
66430;BME280;53242;51.694;10.006;2024-03-06T10:52:17;100253.06;;;8.28;70.70
66430;BME280;53242;51.694;10.006;2024-03-06T10:54:41;100265.56;;;8.26;70.71
66430;BME280;53242;51.694;10.006;2024-03-06T10:57:04;100261.69;;;8.46;69.62
66430;BME280;53242;51.694;10.006;2024-03-06T10:59:29;100268.84;;;8.28;70.25
66430;BME280;53242;51.694;10.006;2024-03-06T11:01:51;100268.88;;;8.44;70.21
66430;BME280;53242;51.694;10.006;2024-03-06T11:04:14;100271.00;;;8.40;69.94
66430;BME280;53242;51.694;10.006;2024-03-06T11:06:38;100268.88;;;8.44;69.89
66430;BME280;53242;51.694;10.006;2024-03-06T11:09:01;100269.19;;;8.33;69.52
66430;BME280;53242;51.694;10.006;2024-03-06T11:11:25;100269.44;;;8.56;68.54
66430;BME280;53242;51.694;10.006;2024-03-06T11:13:48;100269.81;;;8.27;69.39
66430;BME280;53242;51.694;10.006;2024-03-06T11:16:10;100258.66;;;8.33;68.28
66430;BME280;53242;51.694;10.006;2024-03-06T11:23:24;100266.16;;;8.54;67.94
66430;BME280;53242;51.694;10.006;2024-03-06T11:28:10;100266.47;;;8.76;68.33
66430;BME280;53242;51.694;10.006;2024-03-06T11:30:32;100270.44;;;8.63;67.82
66430;BME280;53242;51.694;10.006;2024-03-06T11:32:59;100271.59;;;8.61;68.26
66430;BME280;53242;51.694;10.006;2024-03-06T11:35:22;100268.13;;;8.52;67.74
66430;BME280;53242;51.694;10.006;2024-03-06T11:37:46;100270.13;;;8.91;67.89
66430;BME280;53242;51.694;10.006;2024-03-06T11:40:09;100265.66;;;8.83;67.82
66430;BME280;53242;51.694;10.006;2024-03-06T11:42:34;100271.09;;;8.65;68.31
66430;BME280;53242;51.694;10.006;2024-03-06T11:44:58;100267.66;;;8.98;66.56
66430;BME280;53242;51.694;10.006;2024-03-06T11:47:21;100267.81;;;8.96;67.39
66430;BME280;53242;51.694;10.006;2024-03-06T11:49:44;100265.19;;;8.96;67.88
66430;BME280;53242;51.694;10.006;2024-03-06T11:52:08;100267.81;;;9.13;67.60
66430;BME280;53242;51.694;10.006;2024-03-06T11:54:31;100267.97;;;9.28;66.73
66430;BME280;53242;51.694;10.006;2024-03-06T11:56:55;100275.22;;;9.01;67.72
66430;BME280;53242;51.694;10.006;2024-03-06T11:59:21;100276.38;;;8.90;67.04
66430;BME280;53242;51.694;10.006;2024-03-06T12:01:44;100266.19;;;9.03;67.01
66430;BME280;53242;51.694;10.006;2024-03-06T12:04:06;100267.31;;;9.34;66.82
66430;BME280;53242;51.694;10.006;2024-03-06T12:06:29;100269.09;;;9.33;67.53
66430;BME280;53242;51.694;10.006;2024-03-06T12:08:51;100268.13;;;9.18;67.39
66430;BME280;53242;51.694;10.006;2024-03-06T12:11:15;100269.28;;;8.99;67.66
66430;BME280;53242;51.694;10.006;2024-03-06T12:13:37;100265.84;;;8.98;67.43
66430;BME280;53242;51.694;10.006;2024-03-06T12:16:04;100272.25;;;9.04;67.22
66430;BME280;53242;51.694;10.006;2024-03-06T12:18:26;100268.13;;;9.01;67.05
66430;BME280;53242;51.694;10.006;2024-03-06T12:20:50;100276.56;;;9.13;66.66
66430;BME280;53242;51.694;10.006;2024-03-06T12:23:24;100275.19;;;9.42;65.89
66430;BME280;53242;51.694;10.006;2024-03-06T12:25:48;100272.88;;;9.47;66.00
66430;BME280;53242;51.694;10.006;2024-03-06T12:28:11;100268.91;;;9.60;65.78
66430;BME280;53242;51.694;10.006;2024-03-06T12:30:40;100271.31;;;9.69;65.72
66430;BME280;53242;51.694;10.006;2024-03-06T12:33:04;100274.47;;;9.73;65.52
66430;BME280;53242;51.694;10.006;2024-03-06T12:35:27;100272.44;;;9.83;65.37
66430;BME280;53242;51.694;10.006;2024-03-06T12:37:50;100268.88;;;9.68;65.69
66430;BME280;53242;51.694;10.006;2024-03-06T12:40:12;100270.88;;;10.06;65.16
66430;BME280;53242;51.694;10.006;2024-03-06T12:42:35;100265.41;;;10.07;65.28